createdAt,value
2018-01-24T00:00:30.839Z,101324.91
2018-01-24T00:02:58.589Z,101318.95
2018-01-24T00:05:26.392Z,101321.30
2018-01-24T00:07:54.042Z,101328.92
2018-01-24T00:10:21.726Z,101325.86
2018-01-24T00:12:49.623Z,101335.13
2018-01-24T00:15:17.392Z,101344.81
2018-01-24T00:17:45.136Z,101350.22
2018-01-24T00:20:12.912Z,101339.28
2018-01-24T00:22:40.647Z,101344.94
2018-01-24T00:25:08.423Z,101342.72
2018-01-24T00:27:37.087Z,101340.66
2018-01-24T00:30:04.871Z,101345.48
2018-01-24T00:32:32.593Z,101329.99
2018-01-24T00:35:00.294Z,101324.16
2018-01-24T00:37:28.058Z,101326.25
2018-01-24T00:39:55.853Z,101329.82
2018-01-24T00:42:23.586Z,101329.55
2018-01-24T00:44:51.297Z,101329.80
2018-01-24T00:47:19.033Z,101322.31
2018-01-24T00:49:46.799Z,101312.20
2018-01-24T00:52:14.527Z,101306.23
2018-01-24T00:54:42.307Z,101301.53
2018-01-24T00:57:10.047Z,101314.95
2018-01-24T00:59:37.790Z,101308.00
2018-01-24T01:02:05.566Z,101316.98
2018-01-24T01:04:33.321Z,101309.94
2018-01-24T01:07:01.009Z,101309.50
2018-01-24T01:09:28.738Z,101307.70
2018-01-24T01:11:56.612Z,101314.07
2018-01-24T01:14:24.267Z,101316.41
2018-01-24T01:16:52.055Z,101312.26
2018-01-24T01:19:19.794Z,101319.89
2018-01-24T01:21:47.584Z,101317.92
2018-01-24T01:24:15.308Z,101315.15
2018-01-24T01:26:43.081Z,101304.36
2018-01-24T01:29:10.828Z,101299.11
2018-01-24T01:31:38.536Z,101298.95
2018-01-24T01:34:06.202Z,101300.33
2018-01-24T01:36:33.928Z,101303.52
2018-01-24T01:39:01.655Z,101296.59
2018-01-24T01:41:29.454Z,101295.73
2018-01-24T01:43:57.222Z,101288.25
2018-01-24T01:46:25.046Z,101282.99
2018-01-24T01:48:52.708Z,101279.64
2018-01-24T01:51:20.501Z,101271.89
2018-01-24T01:53:48.256Z,101276.16
2018-01-24T01:56:16.034Z,101262.55
2018-01-24T01:58:43.774Z,101272.94
2018-01-24T02:01:11.636Z,101271.52
2018-01-24T02:03:39.371Z,101267.05
2018-01-24T02:06:07.150Z,101264.97
2018-01-24T02:08:34.800Z,101259.67
2018-01-24T02:11:02.487Z,101260.34
2018-01-24T02:13:30.268Z,101258.20
2018-01-24T02:15:57.966Z,101256.14
2018-01-24T02:18:25.703Z,101270.52
2018-01-24T02:20:53.463Z,101271.05
2018-01-24T02:23:21.195Z,101274.89
2018-01-24T02:25:49.034Z,101272.53
2018-01-24T02:28:16.788Z,101273.23
2018-01-24T02:30:44.584Z,101267.63
2018-01-24T02:33:12.325Z,101267.48
2018-01-24T02:35:40.104Z,101270.24
2018-01-24T02:38:07.768Z,101266.90
2018-01-24T02:40:35.504Z,101265.49
2018-01-24T02:43:03.299Z,101265.08
2018-01-24T02:45:31.049Z,101266.42
2018-01-24T02:47:58.833Z,101266.10
2018-01-24T02:50:26.479Z,101262.09
2018-01-24T02:52:54.270Z,101268.86
2018-01-24T02:55:21.935Z,101261.50
2018-01-24T02:57:49.965Z,101270.43
2018-01-24T03:00:17.615Z,101260.44
2018-01-24T03:02:45.392Z,101259.03
2018-01-24T03:05:13.128Z,101259.14
2018-01-24T03:07:40.915Z,101256.10
2018-01-24T03:10:08.570Z,101257.31
2018-01-24T03:12:36.426Z,101258.02
2018-01-24T03:15:04.099Z,101261.45
2018-01-24T03:17:31.898Z,101266.85
2018-01-24T03:19:59.628Z,101258.79
2018-01-24T03:22:27.321Z,101259.31
2018-01-24T03:24:55.083Z,101255.58
2018-01-24T03:27:22.902Z,101255.13
2018-01-24T03:29:50.631Z,101250.83
2018-01-24T03:32:18.412Z,101249.86
2018-01-24T03:34:46.069Z,101253.33
2018-01-24T03:37:13.871Z,101251.31
2018-01-24T03:39:41.589Z,101249.09
2018-01-24T03:42:09.368Z,101245.91
2018-01-24T03:44:37.104Z,101241.88
2018-01-24T03:47:04.881Z,101250.34
2018-01-24T03:49:33.098Z,101253.71
2018-01-24T03:52:00.824Z,101258.81
2018-01-24T03:54:28.560Z,101256.87
2018-01-24T03:56:56.255Z,101253.81
2018-01-24T03:59:23.983Z,101258.66
2018-01-24T04:01:51.681Z,101262.02
2018-01-24T04:04:19.409Z,101262.56
2018-01-24T04:06:47.186Z,101267.13
2018-01-24T04:09:14.913Z,101271.28
2018-01-24T04:11:42.749Z,101266.98
2018-01-24T04:14:10.491Z,101275.30
2018-01-24T04:16:38.273Z,101274.06
2018-01-24T04:19:06.008Z,101273.63
2018-01-24T04:21:33.750Z,101271.22
2018-01-24T04:24:01.450Z,101282.56
2018-01-24T04:26:29.205Z,101280.63
2018-01-24T04:28:56.907Z,101285.92
2018-01-24T04:31:24.557Z,101283.01
2018-01-24T04:33:52.261Z,101277.69
2018-01-24T04:36:19.909Z,101278.91
2018-01-24T04:38:47.606Z,101276.28
2018-01-24T04:41:15.334Z,101278.33
2018-01-24T04:43:43.118Z,101288.99
2018-01-24T04:46:10.857Z,101285.36
2018-01-24T04:48:38.626Z,101296.75
2018-01-24T04:51:06.386Z,101290.75
2018-01-24T04:53:34.980Z,101288.89
2018-01-24T04:56:02.722Z,101292.75
2018-01-24T04:58:30.456Z,101299.01
2018-01-24T05:00:58.219Z,101300.92
2018-01-24T05:03:26.015Z,101299.12
2018-01-24T05:05:53.764Z,101305.25
2018-01-24T05:08:21.582Z,101309.81
2018-01-24T05:10:49.301Z,101308.00
2018-01-24T05:13:17.072Z,101302.45
2018-01-24T05:15:44.743Z,101303.31
2018-01-24T05:18:12.564Z,101301.89
2018-01-24T05:20:41.851Z,101298.45
2018-01-24T05:23:09.659Z,101295.81
2018-01-24T05:25:37.415Z,101294.73
2018-01-24T05:28:05.121Z,101291.95
2018-01-24T05:30:32.775Z,101295.39
2018-01-24T05:33:00.558Z,101296.62
2018-01-24T05:35:28.268Z,101292.70
2018-01-24T05:37:56.057Z,101292.41
2018-01-24T05:40:23.808Z,101297.79
2018-01-24T05:42:51.498Z,101301.54
2018-01-24T05:45:19.184Z,101298.06
2018-01-24T05:47:46.885Z,101296.96
2018-01-24T05:50:14.539Z,101302.23
2018-01-24T05:52:42.243Z,101298.18
2018-01-24T05:55:09.896Z,101297.31
2018-01-24T05:57:37.608Z,101292.83
2018-01-24T06:00:05.271Z,101304.30
2018-01-24T06:02:32.996Z,101302.88
2018-01-24T06:05:00.723Z,101303.16
2018-01-24T06:07:28.383Z,101297.60
2018-01-24T06:09:56.087Z,101300.38
2018-01-24T06:12:23.751Z,101299.55
2018-01-24T06:14:51.462Z,101297.91
2018-01-24T06:17:19.125Z,101300.27
2018-01-24T06:19:46.824Z,101294.19
2018-01-24T06:22:14.484Z,101296.10
2018-01-24T06:24:46.663Z,101293.84
2018-01-24T06:27:14.548Z,101290.66
2018-01-24T06:29:45.597Z,101298.46
2018-01-24T06:32:13.252Z,101301.93
2018-01-24T06:34:40.983Z,101298.46
2018-01-24T06:37:08.632Z,101290.48
2018-01-24T06:39:36.329Z,101299.91
2018-01-24T06:42:03.991Z,101304.34
2018-01-24T06:44:31.696Z,101296.68
2018-01-24T06:46:59.467Z,101290.98
2018-01-24T06:49:27.166Z,101285.98
2018-01-24T06:51:54.817Z,101282.68
2018-01-24T06:54:27.291Z,101288.27
2018-01-24T06:56:54.938Z,101288.93
2018-01-24T06:59:22.635Z,101277.63
2018-01-24T07:01:50.356Z,101280.30
2018-01-24T07:04:18.057Z,101286.91
2018-01-24T07:06:45.712Z,101298.06
2018-01-24T07:09:14.412Z,101295.31
2018-01-24T07:11:42.079Z,101292.64
2018-01-24T07:14:36.524Z,101294.73
2018-01-24T07:17:04.189Z,101297.17
2018-01-24T07:19:31.905Z,101292.98
2018-01-24T07:21:59.565Z,101294.77
2018-01-24T07:24:27.276Z,101294.84
2018-01-24T07:26:54.940Z,101294.96
2018-01-24T07:29:22.659Z,101295.41
2018-01-24T07:31:50.320Z,101300.31
2018-01-24T07:34:18.077Z,101302.28
2018-01-24T07:36:45.738Z,101303.84
2018-01-24T07:39:13.528Z,101310.53
2018-01-24T07:41:41.339Z,101303.67
2018-01-24T07:44:09.062Z,101306.41
2018-01-24T07:46:36.801Z,101300.23
2018-01-24T07:49:04.486Z,101301.71
2018-01-24T07:51:32.184Z,101298.60
2018-01-24T07:53:59.979Z,101292.46
2018-01-24T07:56:27.674Z,101292.57
2018-01-24T07:58:55.444Z,101297.41
2018-01-24T08:01:23.154Z,101304.43
2018-01-24T08:03:50.902Z,101309.23
2018-01-24T08:06:18.575Z,101311.02
2018-01-24T08:08:46.299Z,101310.21
2018-01-24T08:11:14.120Z,101320.16
2018-01-24T08:13:41.789Z,101321.80
2018-01-24T08:16:09.513Z,101319.95
2018-01-24T08:18:37.238Z,101318.29
2018-01-24T08:21:04.957Z,101314.42
2018-01-24T08:23:32.619Z,101309.29
2018-01-24T08:26:00.359Z,101310.26
2018-01-24T08:28:28.030Z,101305.53
2018-01-24T08:30:55.823Z,101302.17
2018-01-24T08:33:23.478Z,101307.17
2018-01-24T08:35:51.193Z,101299.56
2018-01-24T08:38:18.870Z,101306.37
2018-01-24T08:40:46.577Z,101303.92
2018-01-24T08:43:14.220Z,101305.77
2018-01-24T08:45:42.016Z,101316.77
2018-01-24T08:48:09.679Z,101318.41
2018-01-24T08:50:37.526Z,101314.79
2018-01-24T08:53:05.273Z,101305.63
2018-01-24T08:55:32.982Z,101309.45
2018-01-24T08:58:01.614Z,101297.30
2018-01-24T09:00:29.336Z,101297.95
2018-01-24T09:02:57.011Z,101300.73
2018-01-24T09:05:24.791Z,101301.39
2018-01-24T09:07:52.522Z,101297.72
2018-01-24T09:10:20.267Z,101304.49
2018-01-24T09:12:48.236Z,101306.09
2018-01-24T09:15:16.028Z,101295.11
2018-01-24T09:17:43.795Z,101289.31
2018-01-24T09:20:11.572Z,101295.46
2018-01-24T09:22:39.331Z,101287.56
2018-01-24T09:25:07.154Z,101284.75
2018-01-24T09:27:34.803Z,101285.30
2018-01-24T09:30:02.549Z,101287.42
2018-01-24T09:32:30.211Z,101296.03
2018-01-24T09:34:57.915Z,101286.44
2018-01-24T09:37:25.679Z,101282.75
2018-01-24T09:39:53.375Z,101285.93
2018-01-24T09:42:21.125Z,101281.97
2018-01-24T09:44:48.842Z,101276.44
2018-01-24T09:47:16.514Z,101283.67
2018-01-24T09:49:44.233Z,101279.22
2018-01-24T09:52:11.978Z,101282.98
2018-01-24T09:54:39.718Z,101277.55
2018-01-24T09:57:07.518Z,101272.59
2018-01-24T09:59:35.283Z,101265.00
2018-01-24T10:02:02.997Z,101271.72
2018-01-24T10:04:30.755Z,101273.42
2018-01-24T10:06:58.477Z,101273.25
2018-01-24T10:09:26.231Z,101273.77
2018-01-24T10:11:53.962Z,101262.27
2018-01-24T10:14:21.702Z,101262.02
2018-01-24T10:16:49.412Z,101266.61
2018-01-24T10:19:17.073Z,101267.17
2018-01-24T10:21:44.784Z,101263.31
2018-01-24T10:24:12.891Z,101249.82
2018-01-24T10:26:49.969Z,101246.31
2018-01-24T10:29:21.133Z,101233.37
2018-01-24T10:31:51.189Z,101233.06
2018-01-24T10:34:21.939Z,101233.64
2018-01-24T10:36:51.794Z,101234.78
2018-01-24T10:39:21.606Z,101231.64
2018-01-24T10:41:49.961Z,101227.19
2018-01-24T10:44:22.779Z,101227.09
2018-01-24T10:46:51.974Z,101224.90
2018-01-24T10:49:19.828Z,101223.97
2018-01-24T10:51:47.641Z,101210.48
2018-01-24T10:54:15.387Z,101209.23
2018-01-24T10:56:43.083Z,101214.27
2018-01-24T10:59:10.747Z,101206.73
2018-01-24T11:01:38.444Z,101196.84
2018-01-24T11:04:06.104Z,101202.78
2018-01-24T11:06:33.803Z,101182.90
2018-01-24T11:09:01.506Z,101185.78
2018-01-24T11:11:29.339Z,101181.88
2018-01-24T11:13:57.031Z,101178.50
2018-01-24T11:16:24.725Z,101183.15
2018-01-24T11:18:52.386Z,101178.20
2018-01-24T11:21:20.073Z,101170.95
2018-01-24T11:23:47.719Z,101170.19
2018-01-24T11:26:15.446Z,101166.66
2018-01-24T11:28:43.170Z,101161.24
2018-01-24T11:31:10.867Z,101157.95
2018-01-24T11:33:38.602Z,101160.13
2018-01-24T11:36:06.282Z,101149.77
2018-01-24T11:38:33.923Z,101142.08
2018-01-24T11:41:01.637Z,101143.83
2018-01-24T11:43:29.370Z,101140.05
2018-01-24T11:45:57.099Z,101129.73
2018-01-24T11:48:24.764Z,101125.96
2018-01-24T11:50:52.409Z,101115.69
2018-01-24T11:53:20.116Z,101118.52
2018-01-24T11:55:47.782Z,101113.50
2018-01-24T11:58:15.506Z,101108.08
2018-01-24T12:00:43.177Z,101099.28
2018-01-24T12:03:10.877Z,101099.11
2018-01-24T12:05:38.542Z,101091.67
2018-01-24T12:08:06.246Z,101087.14
2018-01-24T12:10:33.894Z,101083.89
2018-01-24T12:13:01.611Z,101079.38
2018-01-24T12:15:29.298Z,101081.84
2018-01-24T12:17:57.016Z,101073.39
2018-01-24T12:20:24.676Z,101068.38
2018-01-24T12:22:52.383Z,101071.02
2018-01-24T12:25:20.105Z,101072.72
2018-01-24T12:27:47.850Z,101064.23
2018-01-24T12:30:15.538Z,101057.72
2018-01-24T12:32:43.343Z,101058.78
2018-01-24T12:35:11.000Z,101044.55
2018-01-24T12:37:38.713Z,101048.11
2018-01-24T12:40:06.381Z,101045.66
2018-01-24T12:42:34.076Z,101033.94
2018-01-24T12:45:01.831Z,101033.31
2018-01-24T12:47:29.546Z,101022.52
2018-01-24T12:49:57.205Z,101020.03
2018-01-24T12:52:24.993Z,101010.98
2018-01-24T12:54:52.691Z,101009.23
2018-01-24T12:57:20.403Z,101004.38
2018-01-24T12:59:48.051Z,101000.94
2018-01-24T13:02:15.867Z,100987.00
2018-01-24T13:04:43.629Z,100991.83
2018-01-24T13:07:11.333Z,100984.57
2018-01-24T13:09:38.994Z,100986.80
2018-01-24T13:12:06.730Z,100985.70
2018-01-24T13:14:34.471Z,100985.28
2018-01-24T13:17:02.172Z,100971.61
2018-01-24T13:19:29.910Z,100977.95
2018-01-24T13:21:57.655Z,100972.55
2018-01-24T13:24:25.399Z,100970.11
2018-01-24T13:26:53.215Z,100966.37
2018-01-24T13:29:20.861Z,100962.95
2018-01-24T13:31:48.566Z,100959.27
2018-01-24T13:34:16.244Z,100952.31
2018-01-24T13:36:44.037Z,100947.98
2018-01-24T13:39:11.783Z,100945.28
2018-01-24T13:41:39.424Z,100946.73
2018-01-24T13:44:07.121Z,100941.30
2018-01-24T13:46:35.786Z,100939.73
2018-01-24T13:49:03.500Z,100933.55
2018-01-24T13:51:31.151Z,100923.28
2018-01-24T13:53:58.851Z,100913.03
2018-01-24T13:56:26.509Z,100900.57
2018-01-24T13:58:54.301Z,100896.66
2018-01-24T14:01:21.943Z,100890.25
2018-01-24T14:03:49.647Z,100880.98
2018-01-24T14:06:17.376Z,100879.50
2018-01-24T14:08:45.077Z,100877.42
2018-01-24T14:11:12.739Z,100878.32
2018-01-24T14:13:40.428Z,100878.53
2018-01-24T14:16:08.091Z,100879.50
2018-01-24T14:18:35.896Z,100877.87
2018-01-24T14:21:03.574Z,100870.91
2018-01-24T14:23:31.372Z,100875.44
2018-01-24T14:25:59.025Z,100875.25
2018-01-24T14:28:26.731Z,100875.37
2018-01-24T14:30:54.543Z,100865.50
2018-01-24T14:33:22.340Z,100876.02
2018-01-24T14:35:50.005Z,100873.16
2018-01-24T14:38:17.808Z,100871.14
2018-01-24T14:40:45.471Z,100872.83
2018-01-24T14:43:13.290Z,100882.09
2018-01-24T14:45:40.947Z,100876.70
2018-01-24T14:48:08.773Z,100873.30
2018-01-24T14:50:36.523Z,100872.12
2018-01-24T14:53:04.220Z,100862.05
2018-01-24T14:55:31.979Z,100862.34
2018-01-24T14:57:59.708Z,100861.37
2018-01-24T15:00:27.376Z,100865.98
2018-01-24T15:02:55.153Z,100862.21
2018-01-24T15:05:22.806Z,100868.47
2018-01-24T15:07:50.578Z,100856.48
2018-01-24T15:10:18.256Z,100845.49
2018-01-24T15:12:46.048Z,100840.00
2018-01-24T15:15:13.749Z,100825.44
2018-01-24T15:17:41.414Z,100824.87
2018-01-24T15:20:09.191Z,100827.09
2018-01-24T15:22:36.832Z,100827.73
2018-01-24T15:25:04.630Z,100824.88
2018-01-24T15:27:32.451Z,100836.11
2018-01-24T15:30:00.223Z,100829.14
2018-01-24T15:32:27.950Z,100824.81
2018-01-24T15:34:55.747Z,100830.16
2018-01-24T15:37:23.394Z,100827.37
2018-01-24T15:39:51.100Z,100828.92
2018-01-24T15:42:18.745Z,100825.97
2018-01-24T15:44:46.440Z,100822.98
2018-01-24T15:47:14.087Z,100817.68
2018-01-24T15:49:41.859Z,100824.11
2018-01-24T15:52:09.590Z,100821.57
2018-01-24T15:54:37.383Z,100811.55
2018-01-24T15:57:05.133Z,100805.00
2018-01-24T15:59:32.907Z,100801.12
2018-01-24T16:02:00.579Z,100802.36
2018-01-24T16:04:28.363Z,100798.27
2018-01-24T16:06:56.111Z,100798.05
2018-01-24T16:09:23.811Z,100789.53
2018-01-24T16:11:51.476Z,100790.59
2018-01-24T16:14:19.195Z,100788.72
2018-01-24T16:16:46.854Z,100782.98
2018-01-24T16:19:14.555Z,100782.84
2018-01-24T16:21:42.276Z,100785.21
2018-01-24T16:24:09.987Z,100775.61
2018-01-24T16:26:38.613Z,100786.27
2018-01-24T16:29:06.433Z,100779.30
2018-01-24T16:31:34.100Z,100782.84
2018-01-24T16:34:01.881Z,100778.06
2018-01-24T16:36:29.555Z,100777.42
2018-01-24T16:38:57.251Z,100777.20
2018-01-24T16:41:24.917Z,100766.89
2018-01-24T16:43:52.735Z,100778.27
2018-01-24T16:46:20.371Z,100772.20
2018-01-24T16:48:48.166Z,100777.13
2018-01-24T16:51:15.906Z,100767.03
2018-01-24T16:53:43.551Z,100767.94
2018-01-24T16:56:11.247Z,100777.14
2018-01-24T16:58:38.900Z,100764.37
2018-01-24T17:01:06.671Z,100762.07
2018-01-24T17:03:34.399Z,100760.34
2018-01-24T17:06:02.169Z,100759.55
2018-01-24T17:08:29.864Z,100770.70
2018-01-24T17:10:57.569Z,100759.29
2018-01-24T17:13:25.221Z,100753.82
2018-01-24T17:15:52.970Z,100767.84
2018-01-24T17:18:20.671Z,100743.65
2018-01-24T17:20:48.466Z,100749.30
2018-01-24T17:23:16.227Z,100752.43
2018-01-24T17:25:44.017Z,100731.20
2018-01-24T17:28:11.696Z,100739.73
2018-01-24T17:30:39.511Z,100740.38
2018-01-24T17:33:07.204Z,100734.80
2018-01-24T17:35:34.888Z,100731.77
2018-01-24T17:38:02.630Z,100727.33
2018-01-24T17:40:30.343Z,100731.36
2018-01-24T17:42:58.001Z,100729.89
2018-01-24T17:45:25.762Z,100714.78
2018-01-24T17:47:53.554Z,100716.17
2018-01-24T17:50:21.260Z,100709.92
2018-01-24T17:52:49.011Z,100711.16
2018-01-24T17:55:16.750Z,100705.77
2018-01-24T17:57:44.511Z,100695.93
2018-01-24T18:00:12.204Z,100699.69
2018-01-24T18:02:39.932Z,100695.04
2018-01-24T18:05:07.640Z,100693.30
2018-01-24T18:07:35.384Z,100680.41
2018-01-24T18:10:03.158Z,100695.10
2018-01-24T18:12:30.910Z,100687.48
2018-01-24T18:14:58.659Z,100679.53
2018-01-24T18:17:26.306Z,100689.46
2018-01-24T18:19:53.983Z,100679.10
2018-01-24T18:22:21.628Z,100688.86
2018-01-24T18:24:49.392Z,100673.63
2018-01-24T18:27:17.091Z,100670.31
2018-01-24T18:29:44.877Z,100672.96
2018-01-24T18:32:12.571Z,100663.20
2018-01-24T18:34:40.274Z,100661.81
2018-01-24T18:37:08.014Z,100658.20
2018-01-24T18:39:35.708Z,100655.98
2018-01-24T18:42:03.468Z,100650.48
2018-01-24T18:44:31.111Z,100644.48
2018-01-24T18:46:58.812Z,100644.49
2018-01-24T18:49:26.507Z,100645.22
2018-01-24T18:51:54.257Z,100641.27
2018-01-24T18:54:21.899Z,100640.22
2018-01-24T18:56:49.584Z,100636.61
2018-01-24T18:59:17.229Z,100638.98
2018-01-24T19:01:44.926Z,100632.50
2018-01-24T19:04:12.582Z,100639.81
2018-01-24T19:06:40.299Z,100642.83
2018-01-24T19:09:07.943Z,100632.02
2018-01-24T19:11:35.638Z,100629.23
2018-01-24T19:14:03.285Z,100628.66
2018-01-24T19:16:30.990Z,100618.64
2018-01-24T19:18:58.630Z,100616.50
2018-01-24T19:21:26.318Z,100623.00
2018-01-24T19:23:54.146Z,100616.20
2018-01-24T19:26:21.831Z,100617.24
2018-01-24T19:28:49.464Z,100612.82
2018-01-24T19:31:17.154Z,100619.56
2018-01-24T19:33:44.809Z,100622.16
2018-01-24T19:36:12.507Z,100616.69
2018-01-24T19:38:40.180Z,100602.17
2018-01-24T19:41:07.886Z,100611.33
2018-01-24T19:43:35.527Z,100607.17
2018-01-24T19:46:03.225Z,100596.98
2018-01-24T19:48:32.446Z,100601.09
2018-01-24T19:51:00.244Z,100611.00
2018-01-24T19:53:27.950Z,100592.16
2018-01-24T19:55:55.632Z,100594.86
2018-01-24T19:58:23.326Z,100592.57
2018-01-24T20:00:51.044Z,100588.55
2018-01-24T20:03:18.806Z,100586.33
2018-01-24T20:05:46.510Z,100594.30
2018-01-24T20:08:14.258Z,100584.52
2018-01-24T20:10:42.020Z,100586.41
2018-01-24T20:13:09.762Z,100592.31
2018-01-24T20:15:37.447Z,100589.92
2018-01-24T20:18:05.190Z,100584.58
2018-01-24T20:20:32.842Z,100597.20
2018-01-24T20:23:00.529Z,100596.66
2018-01-24T20:25:28.167Z,100578.74
2018-01-24T20:27:55.894Z,100581.70
2018-01-24T20:30:23.548Z,100586.53
2018-01-24T20:32:51.281Z,100573.15
2018-01-24T20:35:18.928Z,100576.13
2018-01-24T20:37:46.647Z,100571.27
2018-01-24T20:40:14.354Z,100574.06
2018-01-24T20:42:42.054Z,100572.99
2018-01-24T20:45:09.730Z,100554.73
2018-01-24T20:47:37.468Z,100559.80
2018-01-24T20:50:05.152Z,100571.44
2018-01-24T20:52:32.832Z,100569.97
2018-01-24T20:55:00.471Z,100566.12
2018-01-24T20:57:28.165Z,100556.18
2018-01-24T20:59:55.808Z,100563.47
2018-01-24T21:02:23.553Z,100563.47
2018-01-24T21:04:51.182Z,100559.95
2018-01-24T21:07:18.861Z,100553.20
2018-01-24T21:09:46.542Z,100554.39
2018-01-24T21:12:14.280Z,100555.15
2018-01-24T21:14:41.982Z,100564.59
2018-01-24T21:17:09.765Z,100559.59
2018-01-24T21:19:37.449Z,100568.61
2018-01-24T21:22:05.141Z,100561.30
2018-01-24T21:24:32.832Z,100556.61
2018-01-24T21:27:00.513Z,100552.11
2018-01-24T21:29:40.038Z,100549.55
2018-01-24T21:32:19.415Z,100546.77
2018-01-24T21:34:59.015Z,100544.88
2018-01-24T21:37:26.709Z,100553.50
2018-01-24T21:39:54.361Z,100551.28
2018-01-24T21:42:22.094Z,100544.89
2018-01-24T21:44:49.723Z,100545.63
2018-01-24T21:47:17.552Z,100542.23
2018-01-24T21:49:45.188Z,100531.48
2018-01-24T21:52:12.936Z,100528.95
2018-01-24T21:54:40.584Z,100521.98
2018-01-24T21:57:08.334Z,100521.91
2018-01-24T21:59:35.993Z,100528.45
2018-01-24T22:02:03.681Z,100520.94
2018-01-24T22:04:31.394Z,100518.58
2018-01-24T22:06:59.168Z,100514.56
2018-01-24T22:09:26.852Z,100512.19
2018-01-24T22:11:54.717Z,100507.38
2018-01-24T22:14:22.483Z,100513.94
2018-01-24T22:16:50.231Z,100525.92
2018-01-24T22:19:17.983Z,100525.34
2018-01-24T22:21:45.752Z,100526.98
2018-01-24T22:24:13.520Z,100523.84
2018-01-24T22:26:41.326Z,100524.59
2018-01-24T22:29:09.010Z,100530.17
2018-01-24T22:31:36.753Z,100535.33
2018-01-24T22:34:04.559Z,100531.56
2018-01-24T22:36:32.372Z,100534.34
2018-01-24T22:39:00.068Z,100547.55
2018-01-24T22:41:27.759Z,100532.69
2018-01-24T22:43:55.527Z,100538.77
2018-01-24T22:46:23.264Z,100535.41
2018-01-24T22:48:51.024Z,100535.81
2018-01-24T22:51:24.247Z,100527.28
2018-01-24T22:53:52.014Z,100532.52
2018-01-24T22:56:19.734Z,100538.17
2018-01-24T22:58:47.586Z,100539.66
2018-01-24T23:01:15.323Z,100540.56
2018-01-24T23:03:43.115Z,100531.37
2018-01-24T23:06:10.758Z,100545.24
2018-01-24T23:08:38.447Z,100547.70
2018-01-24T23:11:06.173Z,100539.75
2018-01-24T23:13:33.863Z,100550.72
2018-01-24T23:16:01.587Z,100546.38
2018-01-24T23:18:29.396Z,100546.86
2018-01-24T23:20:57.125Z,100542.51
2018-01-24T23:23:24.908Z,100538.56
2018-01-24T23:25:52.652Z,100535.94
2018-01-24T23:28:20.433Z,100542.68
2018-01-24T23:30:48.155Z,100537.10
2018-01-24T23:33:15.931Z,100539.48
2018-01-24T23:35:43.659Z,100537.89
2018-01-24T23:38:11.474Z,100534.21
2018-01-24T23:40:39.221Z,100535.54
2018-01-24T23:43:07.014Z,100537.02
2018-01-24T23:45:34.744Z,100532.77
2018-01-24T23:48:02.526Z,100532.09
2018-01-24T23:50:30.180Z,100531.54
2018-01-24T23:52:57.887Z,100533.26
2018-01-24T23:55:25.549Z,100532.05
2018-01-24T23:57:53.343Z,100529.33
